Time;durP1;ratioP1;P1;durP2;ratioP2;P2;SDS_P1;SDS_P2;PMS_P1;PMS_P2;Temp;Humidity;BMP_temperature;BMP_pressure;BME280_temperature;BME280_humidity;BME280_pressure;Samples;Min_cycle;Max_cycle;Signal;HPM_P1;HPM_P2
2022/07/22 00:00:01;;;;;;;0.00;0.00;;;;;;;;;;5038600;28;20104;-70
2022/07/22 00:02:26;;;;;;;0.38;0.38;;;;;;;;;;5037317;28;20493;-71
2022/07/22 00:04:51;;;;;;;0.00;0.00;;;;;;;;;;5043304;28;20040;-71
2022/07/22 00:07:17;;;;;;;0.00;0.00;;;;;;;;;;5034727;28;20026;-71
2022/07/22 00:09:42;;;;;;;0.00;0.00;;;;;;;;;;5046494;28;20032;-71
2022/07/22 00:12:07;;;;;;;0.00;0.00;;;;;;;;;;5045563;28;20025;-72
2022/07/22 00:14:32;;;;;;;0.52;0.52;;;;;;;;;;5048639;28;20436;-72
2022/07/22 00:16:58;;;;;;;0.00;0.00;;;;;;;;;;5047700;28;20033;-72
2022/07/22 00:19:24;;;;;;;0.00;0.00;;;;;;;;;;5039624;28;20394;-72
2022/07/22 00:21:50;;;;;;;0.00;0.00;;;;;;;;;;5039855;28;20033;-73
2022/07/22 00:24:15;;;;;;;0.00;0.00;;;;;;;;;;5040720;28;20025;-71
2022/07/22 00:26:40;;;;;;;0.00;0.00;;;;;;;;;;5045902;28;20485;-71
2022/07/22 00:29:05;;;;;;;0.00;0.00;;;;;;;;;;5047350;28;20017;-71
2022/07/22 00:31:31;;;;;;;0.00;0.00;;;;;;;;;;5052187;28;20288;-71
2022/07/22 00:33:56;;;;;;;0.00;0.00;;;;;;;;;;5045534;28;20276;-73
2022/07/22 00:36:42;;;;;;;0.63;0.63;;;;;;;;;;5037275;28;20025;-73
2022/07/22 00:39:07;;;;;;;0.00;0.00;;;;;;;;;;5020038;28;20469;-69
2022/07/22 00:41:32;;;;;;;0.00;0.00;;;;;;;;;;5035352;28;20025;-69
2022/07/22 00:44:07;;;;;;;0.00;0.00;;;;;;;;;;5040319;28;20496;-68
2022/07/22 00:46:33;;;;;;;0.52;0.13;;;;;;;;;;5041945;28;20021;-68
2022/07/22 00:48:59;;;;;;;0.10;0.10;;;;;;;;;;5046277;28;20031;-67
2022/07/22 00:51:24;;;;;;;0.00;0.00;;;;;;;;;;5050444;28;20019;-66
2022/07/22 00:53:53;;;;;;;0.00;0.00;;;;;;;;;;5051476;28;20413;-68
2022/07/22 00:56:19;;;;;;;0.00;0.00;;;;;;;;;;5031859;28;20021;-67
2022/07/22 00:58:48;;;;;;;0.00;0.00;;;;;;;;;;5034804;28;20067;-67
2022/07/22 01:01:14;;;;;;;0.00;0.00;;;;;;;;;;5043885;28;20021;-67
2022/07/22 01:03:39;;;;;;;0.00;0.00;;;;;;;;;;5045180;28;20142;-69
2022/07/22 01:06:08;;;;;;;0.00;0.00;;;;;;;;;;5042083;28;20108;-68
2022/07/22 01:08:33;;;;;;;0.00;0.00;;;;;;;;;;5045432;28;20045;-68
2022/07/22 01:11:17;;;;;;;0.00;0.00;;;;;;;;;;5043638;28;20059;-63
2022/07/22 01:13:46;;;;;;;0.00;0.00;;;;;;;;;;5046983;28;20017;-64
2022/07/22 01:16:12;;;;;;;0.00;0.00;;;;;;;;;;5051550;28;20025;-64
2022/07/22 01:18:38;;;;;;;0.00;0.00;;;;;;;;;;5048092;28;20038;-64
2022/07/22 01:21:04;;;;;;;0.20;0.20;;;;;;;;;;5042940;28;20256;-64
2022/07/22 01:23:29;;;;;;;0.00;0.00;;;;;;;;;;5044056;28;20095;-64
2022/07/22 01:25:57;;;;;;;0.00;0.00;;;;;;;;;;5042919;28;20029;-75
2022/07/22 01:28:26;;;;;;;0.00;0.00;;;;;;;;;;5041840;28;20029;-67
2022/07/22 01:30:54;;;;;;;0.00;0.00;;;;;;;;;;5044798;28;20050;-70
2022/07/22 01:33:23;;;;;;;0.00;0.00;;;;;;;;;;5044087;28;20705;-65
2022/07/22 01:35:49;;;;;;;10.95;3.10;;;;;;;;;;5049233;28;20033;-65
2022/07/22 01:38:17;;;;;;;0.00;0.00;;;;;;;;;;5046103;28;20059;-66
2022/07/22 01:40:43;;;;;;;0.00;0.00;;;;;;;;;;5048434;28;20044;-68
2022/07/22 01:43:08;;;;;;;0.00;0.00;;;;;;;;;;5048487;28;20036;-68
2022/07/22 01:45:34;;;;;;;0.10;0.10;;;;;;;;;;5040991;28;20143;-68
2022/07/22 01:47:59;;;;;;;0.00;0.00;;;;;;;;;;5047881;28;20058;-68
2022/07/22 01:50:27;;;;;;;0.00;0.00;;;;;;;;;;5045626;28;20024;-68
2022/07/22 01:52:53;;;;;;;0.00;0.00;;;;;;;;;;5050074;28;20090;-68
2022/07/22 01:55:18;;;;;;;0.38;0.38;;;;;;;;;;5041716;28;20063;-68
2022/07/22 02:00:42;;;;;;;0.00;0.00;;;;;;;;;;4073736;22;21384;-69
2022/07/22 02:03:08;;;;;;;0.00;0.00;;;;;;;;;;5037814;28;20330;-69
2022/07/22 02:05:33;;;;;;;0.00;0.00;;;;;;;;;;5043775;28;20040;-64
2022/07/22 02:08:00;;;;;;;0.00;0.00;;;;;;;;;;5043628;28;20029;-64
2022/07/22 02:10:25;;;;;;;0.00;0.00;;;;;;;;;;5036631;28;20029;-63
2022/07/22 02:12:50;;;;;;;0.00;0.00;;;;;;;;;;5045305;28;20016;-64
2022/07/22 02:15:15;;;;;;;0.00;0.00;;;;;;;;;;5033496;28;20260;-64
2022/07/22 02:17:41;;;;;;;0.00;0.00;;;;;;;;;;5036941;28;20029;-67
2022/07/22 02:20:06;;;;;;;0.00;0.00;;;;;;;;;;5036465;28;20096;-67
2022/07/22 02:22:31;;;;;;;0.35;0.35;;;;;;;;;;5037182;28;20484;-67
2022/07/22 02:24:56;;;;;;;0.00;0.00;;;;;;;;;;5038584;28;20021;-67
2022/07/22 02:27:22;;;;;;;0.00;0.00;;;;;;;;;;5038061;28;20022;-66
2022/07/22 02:29:47;;;;;;;0.00;0.00;;;;;;;;;;5039754;28;20512;-66
2022/07/22 02:32:12;;;;;;;0.00;0.00;;;;;;;;;;5037569;28;20033;-66
2022/07/22 02:34:37;;;;;;;0.00;0.00;;;;;;;;;;5038749;28;20124;-66
2022/07/22 02:37:03;;;;;;;0.00;0.00;;;;;;;;;;5038034;28;20030;-67
2022/07/22 02:39:30;;;;;;;0.00;0.00;;;;;;;;;;5035580;28;20034;-67
2022/07/22 02:41:56;;;;;;;0.00;0.00;;;;;;;;;;5026648;28;20030;-68
2022/07/22 02:44:21;;;;;;;0.00;0.00;;;;;;;;;;5038359;28;20029;-68
2022/07/22 02:46:46;;;;;;;0.00;0.00;;;;;;;;;;5038394;28;20017;-62
2022/07/22 02:49:14;;;;;;;0.00;0.00;;;;;;;;;;5037595;28;20013;-63
2022/07/22 02:51:40;;;;;;;0.00;0.00;;;;;;;;;;5037131;28;20567;-64
2022/07/22 02:54:05;;;;;;;0.00;0.00;;;;;;;;;;5040088;28;20041;-63
2022/07/22 02:56:33;;;;;;;0.00;0.00;;;;;;;;;;5034809;28;20374;-63
2022/07/22 02:59:00;;;;;;;0.00;0.00;;;;;;;;;;5039381;28;20075;-64
2022/07/22 03:01:28;;;;;;;0.00;0.00;;;;;;;;;;4995541;28;1103878;-68
2022/07/22 03:03:53;;;;;;;0.00;0.00;;;;;;;;;;5025681;28;20048;-68
2022/07/22 03:06:21;;;;;;;0.00;0.00;;;;;;;;;;5023242;28;20348;-65
2022/07/22 03:08:46;;;;;;;0.00;0.00;;;;;;;;;;5020697;28;20014;-64
2022/07/22 03:11:11;;;;;;;0.00;0.00;;;;;;;;;;5023650;28;20028;-66
2022/07/22 03:13:37;;;;;;;0.00;0.00;;;;;;;;;;5018022;28;20016;-67
2022/07/22 03:16:02;;;;;;;0.00;0.00;;;;;;;;;;5020393;28;20037;-68
2022/07/22 03:18:27;;;;;;;0.00;0.00;;;;;;;;;;5018121;28;20729;-66
2022/07/22 03:20:52;;;;;;;0.00;0.00;;;;;;;;;;5023431;28;20339;-66
2022/07/22 03:23:18;;;;;;;0.00;0.00;;;;;;;;;;5020548;28;20029;-67
2022/07/22 03:25:43;;;;;;;0.00;0.00;;;;;;;;;;5021305;28;20052;-66
2022/07/22 03:28:08;;;;;;;0.00;0.00;;;;;;;;;;5024588;28;20027;-66
2022/07/22 03:30:33;;;;;;;0.00;0.00;;;;;;;;;;5022420;28;20056;-65
2022/07/22 03:32:58;;;;;;;0.00;0.00;;;;;;;;;;5015303;28;20116;-66
2022/07/22 03:35:24;;;;;;;0.00;0.00;;;;;;;;;;5013761;28;20062;-63
2022/07/22 03:37:49;;;;;;;0.00;0.00;;;;;;;;;;5010913;28;20057;-67
2022/07/22 03:40:14;;;;;;;0.00;0.00;;;;;;;;;;5003506;28;20025;-65
2022/07/22 03:42:40;;;;;;;0.00;0.00;;;;;;;;;;5011930;28;20037;-64
2022/07/22 03:45:05;;;;;;;0.00;0.00;;;;;;;;;;5014397;28;20075;-64
2022/07/22 03:47:30;;;;;;;0.00;0.00;;;;;;;;;;5025362;28;20014;-63
2022/07/22 03:49:58;;;;;;;0.00;0.00;;;;;;;;;;5017674;28;20033;-62
2022/07/22 03:52:26;;;;;;;0.00;0.00;;;;;;;;;;5024810;28;20382;-68
2022/07/22 03:54:51;;;;;;;0.00;0.00;;;;;;;;;;5012636;28;20049;-66
2022/07/22 03:57:16;;;;;;;0.00;0.00;;;;;;;;;;5020005;28;20049;-63
2022/07/22 03:59:41;;;;;;;0.00;0.00;;;;;;;;;;5020185;28;20033;-63
2022/07/22 04:02:10;;;;;;;0.00;0.00;;;;;;;;;;5020927;28;20058;-64
2022/07/22 04:04:35;;;;;;;0.00;0.00;;;;;;;;;;5037007;28;20043;-61
2022/07/22 04:07:00;;;;;;;0.00;0.00;;;;;;;;;;5040045;28;20025;-62
2022/07/22 04:09:25;;;;;;;0.00;0.00;;;;;;;;;;5038423;28;20101;-62
2022/07/22 04:11:51;;;;;;;0.00;0.00;;;;;;;;;;5040908;28;20029;-75
2022/07/22 04:14:16;;;;;;;0.00;0.00;;;;;;;;;;5043447;28;20083;-73
2022/07/22 04:16:43;;;;;;;0.00;0.00;;;;;;;;;;5042877;28;20094;-71
2022/07/22 04:19:09;;;;;;;0.00;0.00;;;;;;;;;;5042394;28;20024;-71
2022/07/22 04:21:34;;;;;;;0.00;0.00;;;;;;;;;;5044500;28;20474;-68
2022/07/22 04:24:00;;;;;;;0.00;0.00;;;;;;;;;;5032680;28;20032;-65
2022/07/22 04:26:25;;;;;;;0.00;0.00;;;;;;;;;;5044071;28;20033;-64
2022/07/22 04:28:50;;;;;;;0.00;0.00;;;;;;;;;;5041528;28;20036;-64
2022/07/22 04:31:15;;;;;;;0.00;0.00;;;;;;;;;;5041208;28;20021;-60
2022/07/22 04:33:41;;;;;;;0.00;0.00;;;;;;;;;;5043485;28;20096;-59
2022/07/22 04:36:06;;;;;;;0.00;0.00;;;;;;;;;;5044091;28;20168;-67
2022/07/22 04:38:40;;;;;;;0.00;0.00;;;;;;;;;;5044408;28;20123;-60
2022/07/22 04:41:05;;;;;;;0.00;0.00;;;;;;;;;;5039780;28;20104;-60
2022/07/22 04:43:33;;;;;;;0.00;0.00;;;;;;;;;;5039195;28;20025;-60
2022/07/22 04:45:59;;;;;;;0.00;0.00;;;;;;;;;;5036824;28;20056;-60
2022/07/22 04:48:24;;;;;;;0.00;0.00;;;;;;;;;;5041404;28;20021;-63
2022/07/22 04:50:49;;;;;;;0.00;0.00;;;;;;;;;;5037281;28;20036;-62
2022/07/22 04:53:14;;;;;;;0.00;0.00;;;;;;;;;;5042774;28;20021;-63
2022/07/22 04:55:39;;;;;;;0.00;0.00;;;;;;;;;;5045361;28;20025;-62
2022/07/22 04:58:05;;;;;;;0.00;0.00;;;;;;;;;;5043621;28;20029;-62
2022/07/22 05:00:30;;;;;;;0.00;0.00;;;;;;;;;;5040050;28;20025;-62
2022/07/22 05:02:56;;;;;;;0.00;0.00;;;;;;;;;;5030035;28;20132;-62
2022/07/22 05:05:21;;;;;;;0.00;0.00;;;;;;;;;;5027151;28;20053;-60
2022/07/22 05:07:49;;;;;;;0.00;0.00;;;;;;;;;;5019808;28;20697;-61
2022/07/22 05:10:16;;;;;;;0.00;0.00;;;;;;;;;;5024413;28;20026;-61
2022/07/22 05:12:44;;;;;;;0.00;0.00;;;;;;;;;;5021846;28;20026;-61
2022/07/22 05:15:10;;;;;;;0.15;0.15;;;;;;;;;;5021220;28;20467;-60
2022/07/22 05:17:35;;;;;;;0.00;0.00;;;;;;;;;;5024034;28;20194;-66
2022/07/22 05:20:06;;;;;;;0.00;0.00;;;;;;;;;;5013812;28;20157;-62
2022/07/22 05:22:32;;;;;;;0.00;0.00;;;;;;;;;;5020891;28;20026;-66
2022/07/22 05:24:57;;;;;;;0.00;0.00;;;;;;;;;;5017191;28;20021;-61
2022/07/22 05:27:22;;;;;;;0.00;0.00;;;;;;;;;;5022335;28;20473;-61
2022/07/22 05:29:50;;;;;;;0.00;0.00;;;;;;;;;;5022556;28;20112;-63
2022/07/22 05:32:18;;;;;;;0.80;0.80;;;;;;;;;;5011327;28;20022;-63
2022/07/22 05:34:46;;;;;;;5.10;0.47;;;;;;;;;;5016262;28;20036;-64
2022/07/22 05:37:11;;;;;;;0.00;0.00;;;;;;;;;;5026643;28;20029;-67
2022/07/22 05:39:39;;;;;;;0.00;0.00;;;;;;;;;;5026842;28;20021;-66
2022/07/22 05:42:05;;;;;;;0.00;0.00;;;;;;;;;;5020220;28;20049;-63
2022/07/22 05:44:30;;;;;;;0.00;0.00;;;;;;;;;;5019967;28;20022;-62
2022/07/22 05:46:55;;;;;;;0.73;0.73;;;;;;;;;;5020724;28;20348;-66
2022/07/22 05:49:21;;;;;;;0.00;0.00;;;;;;;;;;5013891;28;20398;-66
2022/07/22 05:51:46;;;;;;;2.33;2.25;;;;;;;;;;5021692;28;20371;-68
2022/07/22 05:54:12;;;;;;;0.20;0.20;;;;;;;;;;5012240;28;20047;-69
2022/07/22 05:56:37;;;;;;;0.00;0.00;;;;;;;;;;5011009;28;20025;-68
2022/07/22 05:59:02;;;;;;;0.00;0.00;;;;;;;;;;5023780;28;20279;-67
2022/07/22 06:01:27;;;;;;;0.00;0.00;;;;;;;;;;5023038;28;20121;-68
2022/07/22 06:03:53;;;;;;;0.90;0.90;;;;;;;;;;5034120;28;20271;-68
2022/07/22 06:06:18;;;;;;;0.00;0.00;;;;;;;;;;5037141;28;20111;-68
2022/07/22 06:08:43;;;;;;;0.00;0.00;;;;;;;;;;5040293;28;20030;-66
2022/07/22 06:11:08;;;;;;;2.22;0.88;;;;;;;;;;5036157;28;20507;-67
2022/07/22 06:13:34;;;;;;;0.05;0.05;;;;;;;;;;5031386;28;20496;-67
2022/07/22 06:15:59;;;;;;;0.00;0.00;;;;;;;;;;5038113;28;20493;-67
2022/07/22 06:18:24;;;;;;;0.00;0.00;;;;;;;;;;5038969;28;20100;-67
2022/07/22 06:20:52;;;;;;;0.30;0.30;;;;;;;;;;5038853;28;20060;-68
2022/07/22 06:23:18;;;;;;;0.00;0.00;;;;;;;;;;5040266;28;20029;-68
2022/07/22 06:25:43;;;;;;;0.00;0.00;;;;;;;;;;5036147;28;20028;-69
2022/07/22 06:28:09;;;;;;;0.00;0.00;;;;;;;;;;5040596;28;20025;-69
2022/07/22 06:30:37;;;;;;;0.93;0.47;;;;;;;;;;5031731;28;20072;-69
2022/07/22 06:33:02;;;;;;;0.57;0.57;;;;;;;;;;5040687;28;20068;-67
2022/07/22 06:35:27;;;;;;;1.27;0.55;;;;;;;;;;5036023;28;20482;-67
2022/07/22 06:37:53;;;;;;;0.00;0.00;;;;;;;;;;5036412;28;20124;-67
2022/07/22 06:40:18;;;;;;;0.28;0.28;;;;;;;;;;5034899;28;20025;-66
2022/07/22 06:42:46;;;;;;;2.17;1.02;;;;;;;;;;5035366;28;20025;-66
2022/07/22 06:45:11;;;;;;;0.17;0.17;;;;;;;;;;5038644;28;20350;-66
2022/07/22 06:47:36;;;;;;;0.00;0.00;;;;;;;;;;5039273;28;20025;-66
2022/07/22 06:50:02;;;;;;;0.03;0.03;;;;;;;;;;5039439;28;20485;-66
2022/07/22 06:52:28;;;;;;;0.52;0.52;;;;;;;;;;5037496;28;20021;-66
2022/07/22 06:54:53;;;;;;;0.25;0.15;;;;;;;;;;5036558;28;20426;-68
2022/07/22 06:57:18;;;;;;;0.00;0.00;;;;;;;;;;5040352;28;20029;-66
2022/07/22 06:59:43;;;;;;;0.00;0.00;;;;;;;;;;5039354;28;20260;-67
2022/07/22 07:02:09;;;;;;;0.32;0.32;;;;;;;;;;5029202;28;20296;-67
2022/07/22 07:04:34;;;;;;;0.00;0.00;;;;;;;;;;5021351;28;20243;-67
2022/07/22 07:06:59;;;;;;;0.10;0.10;;;;;;;;;;5019471;28;20065;-60
2022/07/22 07:09:24;;;;;;;0.83;0.83;;;;;;;;;;5015011;28;20021;-66
2022/07/22 07:11:49;;;;;;;0.00;0.00;;;;;;;;;;5017926;28;20263;-70
2022/07/22 07:14:15;;;;;;;0.22;0.22;;;;;;;;;;5019307;28;20253;-69
2022/07/22 07:16:40;;;;;;;0.15;0.15;;;;;;;;;;5018180;28;20028;-69
2022/07/22 07:19:05;;;;;;;0.73;0.25;;;;;;;;;;5021710;28;20010;-70
2022/07/22 07:21:30;;;;;;;0.00;0.00;;;;;;;;;;5015781;28;20017;-71
2022/07/22 07:23:56;;;;;;;1.10;0.10;;;;;;;;;;5017371;28;20089;-71
2022/07/22 07:26:21;;;;;;;0.10;0.10;;;;;;;;;;5017775;28;20037;-71
2022/07/22 07:28:46;;;;;;;0.77;0.77;;;;;;;;;;5018289;28;20402;-71
2022/07/22 07:31:11;;;;;;;1.65;1.65;;;;;;;;;;5013551;28;20268;-71
2022/07/22 07:33:37;;;;;;;0.00;0.00;;;;;;;;;;5016111;28;20029;-71
2022/07/22 07:36:02;;;;;;;1.48;0.35;;;;;;;;;;5016985;28;20275;-71
2022/07/22 07:38:27;;;;;;;0.00;0.00;;;;;;;;;;5020784;28;20030;-71
2022/07/22 07:40:56;;;;;;;0.10;0.10;;;;;;;;;;5017748;28;20018;-70
2022/07/22 07:43:21;;;;;;;0.30;0.30;;;;;;;;;;5021242;28;20022;-70
2022/07/22 07:45:46;;;;;;;0.10;0.10;;;;;;;;;;5019983;28;20029;-71
2022/07/22 07:48:11;;;;;;;0.00;0.00;;;;;;;;;;5022167;28;20026;-70
2022/07/22 07:50:37;;;;;;;0.00;0.00;;;;;;;;;;5017780;28;20039;-71
2022/07/22 07:53:02;;;;;;;0.00;0.00;;;;;;;;;;5018285;28;20273;-71
2022/07/22 07:55:27;;;;;;;1.65;1.55;;;;;;;;;;5019067;28;20033;-71
2022/07/22 07:57:53;;;;;;;0.00;0.00;;;;;;;;;;5020432;28;20032;-70
2022/07/22 08:00:20;;;;;;;0.00;0.00;;;;;;;;;;5020416;28;20044;-72
2022/07/22 08:02:49;;;;;;;0.00;0.00;;;;;;;;;;5027077;28;20073;-71
2022/07/22 08:05:14;;;;;;;0.00;0.00;;;;;;;;;;5036547;28;20067;-71
2022/07/22 08:07:39;;;;;;;0.00;0.00;;;;;;;;;;5038676;28;20021;-71
2022/07/22 08:10:05;;;;;;;0.00;0.00;;;;;;;;;;5038449;28;20026;-73
2022/07/22 08:12:36;;;;;;;0.00;0.00;;;;;;;;;;5037531;28;20032;-71
2022/07/22 08:15:02;;;;;;;0.38;0.38;;;;;;;;;;5036681;28;20105;-71
2022/07/22 08:17:27;;;;;;;0.00;0.00;;;;;;;;;;5038466;28;20488;-71
2022/07/22 08:19:52;;;;;;;0.00;0.00;;;;;;;;;;5029276;28;20076;-71
2022/07/22 08:22:18;;;;;;;0.00;0.00;;;;;;;;;;5037314;28;20025;-72
2022/07/22 08:24:44;;;;;;;0.00;0.00;;;;;;;;;;5029290;28;20129;-72
2022/07/22 08:27:09;;;;;;;0.20;0.20;;;;;;;;;;5038523;28;20386;-72
2022/07/22 08:29:34;;;;;;;0.00;0.00;;;;;;;;;;5039177;28;20083;-71
2022/07/22 08:32:03;;;;;;;0.00;0.00;;;;;;;;;;5039450;28;20439;-70
2022/07/22 08:34:29;;;;;;;0.00;0.00;;;;;;;;;;5036816;28;20359;-70
2022/07/22 08:36:54;;;;;;;0.20;0.20;;;;;;;;;;5037845;28;20538;-71
2022/07/22 08:39:19;;;;;;;0.00;0.00;;;;;;;;;;5036649;28;20063;-71
2022/07/22 08:41:44;;;;;;;0.00;0.00;;;;;;;;;;5039503;28;20264;-70
2022/07/22 08:44:09;;;;;;;0.17;0.17;;;;;;;;;;5037013;28;20009;-71
2022/07/22 08:46:38;;;;;;;0.00;0.00;;;;;;;;;;5039821;28;20070;-69
2022/07/22 08:49:03;;;;;;;0.10;0.10;;;;;;;;;;5039585;28;20017;-70
2022/07/22 08:51:28;;;;;;;0.00;0.00;;;;;;;;;;5042668;28;20052;-70
2022/07/22 08:53:54;;;;;;;0.00;0.00;;;;;;;;;;5042720;28;20063;-71
2022/07/22 08:56:20;;;;;;;0.00;0.00;;;;;;;;;;5039981;28;20108;-71
2022/07/22 08:58:45;;;;;;;0.00;0.00;;;;;;;;;;5037749;28;20136;-70
2022/07/22 09:01:12;;;;;;;0.00;0.00;;;;;;;;;;5039109;28;20025;-71
2022/07/22 09:03:46;;;;;;;0.17;0.17;;;;;;;;;;5042016;28;20053;-70
2022/07/22 09:06:11;;;;;;;0.00;0.00;;;;;;;;;;5019922;28;20012;-71
2022/07/22 09:08:55;;;;;;;0.00;0.00;;;;;;;;;;5040396;28;20377;-68
2022/07/22 09:11:21;;;;;;;0.10;0.10;;;;;;;;;;5040254;28;20020;-64
2022/07/22 09:13:47;;;;;;;0.52;0.52;;;;;;;;;;5041841;28;20020;-65
2022/07/22 09:16:15;;;;;;;0.00;0.00;;;;;;;;;;5039184;28;20055;-67
2022/07/22 09:18:45;;;;;;;0.00;0.00;;;;;;;;;;5040772;28;20032;-66
2022/07/22 09:21:11;;;;;;;3.63;3.53;;;;;;;;;;5038078;28;20556;-67
2022/07/22 09:23:41;;;;;;;0.00;0.00;;;;;;;;;;5039638;28;20029;-67
2022/07/22 09:26:06;;;;;;;0.10;0.10;;;;;;;;;;5042057;28;20127;-67
2022/07/22 09:28:31;;;;;;;0.00;0.00;;;;;;;;;;5039216;28;20021;-67
2022/07/22 09:30:56;;;;;;;0.00;0.00;;;;;;;;;;5042407;28;20017;-67
2022/07/22 09:33:24;;;;;;;0.00;0.00;;;;;;;;;;5041122;28;20021;-67
2022/07/22 09:35:52;;;;;;;0.35;0.35;;;;;;;;;;5041979;28;20728;-65
2022/07/22 09:38:19;;;;;;;0.00;0.00;;;;;;;;;;5041990;28;20022;-64
2022/07/22 09:40:45;;;;;;;0.20;0.20;;;;;;;;;;5040837;28;20036;-64
2022/07/22 09:43:11;;;;;;;0.63;0.63;;;;;;;;;;5041245;28;20459;-66
2022/07/22 09:45:43;;;;;;;0.00;0.00;;;;;;;;;;5040957;28;20071;-66
2022/07/22 09:48:08;;;;;;;0.00;0.00;;;;;;;;;;5038687;28;20378;-66
2022/07/22 09:50:34;;;;;;;0.00;0.00;;;;;;;;;;5040367;28;20033;-67
2022/07/22 09:52:59;;;;;;;0.00;0.00;;;;;;;;;;5039026;28;20283;-66
2022/07/22 09:55:25;;;;;;;0.00;0.00;;;;;;;;;;5042362;28;20138;-66
2022/07/22 09:57:54;;;;;;;0.10;0.10;;;;;;;;;;5041652;28;20036;-65
2022/07/22 10:00:26;;;;;;;0.00;0.00;;;;;;;;;;5039737;28;20462;-65
2022/07/22 10:02:53;;;;;;;0.00;0.00;;;;;;;;;;5015038;28;20042;-66
2022/07/22 10:05:20;;;;;;;0.20;0.10;;;;;;;;;;5022330;28;20036;-65
2022/07/22 10:07:48;;;;;;;0.00;0.00;;;;;;;;;;5025443;28;20472;-65
2022/07/22 10:10:15;;;;;;;0.08;0.08;;;;;;;;;;5016082;28;20037;-66
2022/07/22 10:12:44;;;;;;;0.32;0.32;;;;;;;;;;5024851;28;20155;-66
2022/07/22 10:15:09;;;;;;;0.75;0.43;;;;;;;;;;5025329;28;20029;-66
2022/07/22 10:17:40;;;;;;;0.40;0.40;;;;;;;;;;5017466;28;20025;-66
2022/07/22 10:20:06;;;;;;;0.55;0.55;;;;;;;;;;5022352;28;20022;-67
2022/07/22 10:22:41;;;;;;;0.00;0.00;;;;;;;;;;5020252;28;20028;-67
2022/07/22 10:25:07;;;;;;;0.00;0.00;;;;;;;;;;5021786;28;20022;-67
2022/07/22 10:27:44;;;;;;;0.00;0.00;;;;;;;;;;5015546;28;20680;-67
2022/07/22 10:30:10;;;;;;;0.00;0.00;;;;;;;;;;5024662;28;20717;-67
2022/07/22 10:32:35;;;;;;;0.22;0.22;;;;;;;;;;5023568;28;20022;-66
2022/07/22 10:35:01;;;;;;;0.00;0.00;;;;;;;;;;5024661;28;20112;-67
2022/07/22 10:37:38;;;;;;;0.00;0.00;;;;;;;;;;5026417;28;20459;-66
2022/07/22 10:40:11;;;;;;;0.20;0.20;;;;;;;;;;5023082;28;20059;-66
2022/07/22 10:42:54;;;;;;;0.00;0.00;;;;;;;;;;5018477;28;20026;-66
2022/07/22 10:45:20;;;;;;;0.00;0.00;;;;;;;;;;5023861;28;20546;-67
2022/07/22 10:48:09;;;;;;;0.00;0.00;;;;;;;;;;5024969;28;20104;-66
2022/07/22 10:50:37;;;;;;;;;;;;;;;;;;4990847;28;20482;-66
2022/07/22 10:53:05;;;;;;;0.00;0.00;;;;;;;;;;5024240;28;19951;-66
2022/07/22 10:55:30;;;;;;;1.85;0.63;;;;;;;;;;5022854;28;20021;-66
2022/07/22 10:58:01;;;;;;;0.08;0.08;;;;;;;;;;5019970;28;20086;-66
2022/07/22 11:00:29;;;;;;;0.00;0.00;;;;;;;;;;5024140;28;20417;-67
2022/07/22 11:02:54;;;;;;;0.35;0.35;;;;;;;;;;5036752;28;20053;-66
2022/07/22 11:05:32;;;;;;;0.65;0.65;;;;;;;;;;5040123;28;20044;-64
2022/07/22 11:07:57;;;;;;;5.07;1.17;;;;;;;;;;5038781;28;20378;-67
2022/07/22 11:10:22;;;;;;;0.70;0.63;;;;;;;;;;5039562;28;20024;-66
2022/07/22 11:12:48;;;;;;;0.30;0.30;;;;;;;;;;5039384;28;20024;-66
2022/07/22 11:15:13;;;;;;;0.10;0.10;;;;;;;;;;5040727;28;20033;-67
2022/07/22 11:17:39;;;;;;;0.98;0.98;;;;;;;;;;5039584;28;20025;-67
2022/07/22 11:20:05;;;;;;;0.00;0.00;;;;;;;;;;5037328;28;20029;-66
2022/07/22 11:22:31;;;;;;;0.22;0.22;;;;;;;;;;5040343;28;20108;-67
2022/07/22 11:24:56;;;;;;;0.00;0.00;;;;;;;;;;5031612;28;20526;-66
2022/07/22 11:27:22;;;;;;;0.00;0.00;;;;;;;;;;5041288;28;20013;-65
2022/07/22 11:29:48;;;;;;;0.20;0.20;;;;;;;;;;5040392;28;20025;-65
2022/07/22 11:32:14;;;;;;;0.00;0.00;;;;;;;;;;5038030;28;20025;-65
2022/07/22 11:34:45;;;;;;;1.33;1.27;;;;;;;;;;5036017;28;20040;-65
2022/07/22 11:37:11;;;;;;;0.40;0.40;;;;;;;;;;5038704;28;21562;-65
2022/07/22 11:39:37;;;;;;;0.00;0.00;;;;;;;;;;5038396;28;20028;-65
2022/07/22 11:42:03;;;;;;;0.00;0.00;;;;;;;;;;5039003;28;20099;-65
2022/07/22 11:44:30;;;;;;;0.55;0.55;;;;;;;;;;5038365;28;20027;-65
2022/07/22 11:46:58;;;;;;;0.63;0.63;;;;;;;;;;5040820;28;20576;-65
2022/07/22 11:49:24;;;;;;;0.00;0.00;;;;;;;;;;5037941;28;20013;-66
2022/07/22 11:51:55;;;;;;;0.57;0.32;;;;;;;;;;5037019;28;20033;-65
2022/07/22 11:54:20;;;;;;;1.95;1.77;;;;;;;;;;5038392;28;20017;-65
2022/07/22 11:56:45;;;;;;;0.00;0.00;;;;;;;;;;5039413;28;20028;-65
2022/07/22 11:59:16;;;;;;;0.63;0.63;;;;;;;;;;5039303;28;20087;-66
2022/07/22 12:01:41;;;;;;;0.10;0.10;;;;;;;;;;5033381;28;20048;-66
2022/07/22 12:04:07;;;;;;;0.28;0.05;;;;;;;;;;5012265;28;20034;-65
2022/07/22 12:06:37;;;;;;;0.20;0.20;;;;;;;;;;5019044;28;20215;-65
2022/07/22 12:09:07;;;;;;;0.10;0.10;;;;;;;;;;5021771;28;20041;-65
2022/07/22 12:11:36;;;;;;;0.00;0.00;;;;;;;;;;5022479;28;20033;-66
2022/07/22 12:14:09;;;;;;;0.00;0.00;;;;;;;;;;5018247;28;20430;-67
2022/07/22 12:16:35;;;;;;;0.00;0.00;;;;;;;;;;5018460;28;20032;-67
2022/07/22 12:19:07;;;;;;;0.10;0.10;;;;;;;;;;5021367;28;20037;-68
2022/07/22 12:21:49;;;;;;;0.90;0.90;;;;;;;;;;5023004;28;20478;-68
2022/07/22 12:24:14;;;;;;;0.13;0.13;;;;;;;;;;5021340;28;20805;-67
2022/07/22 12:26:39;;;;;;;0.00;0.00;;;;;;;;;;5025205;28;20025;-67
2022/07/22 12:29:16;;;;;;;0.00;0.00;;;;;;;;;;5025522;28;20342;-67
2022/07/22 12:31:42;;;;;;;0.28;0.28;;;;;;;;;;5020108;28;20284;-67
2022/07/22 12:34:08;;;;;;;0.20;0.20;;;;;;;;;;5025356;28;20034;-67
2022/07/22 12:36:33;;;;;;;0.47;0.47;;;;;;;;;;5017029;28;20029;-67
2022/07/22 12:39:10;;;;;;;0.00;0.00;;;;;;;;;;5029109;28;20028;-67
2022/07/22 12:41:43;;;;;;;0.00;0.00;;;;;;;;;;5027245;28;20029;-67
2022/07/22 12:44:14;;;;;;;0.13;0.13;;;;;;;;;;5023411;28;20838;-67
2022/07/22 12:46:50;;;;;;;0.00;0.00;;;;;;;;;;5024487;28;20085;-66
2022/07/22 12:49:17;;;;;;;0.00;0.00;;;;;;;;;;5026354;28;20390;-66
2022/07/22 12:52:02;;;;;;;0.25;0.20;;;;;;;;;;5028996;28;20379;-67
2022/07/22 12:54:30;;;;;;;8.23;1.75;;;;;;;;;;5016771;28;20025;-66
2022/07/22 12:56:55;;;;;;;0.10;0.10;;;;;;;;;;5024346;28;20021;-66
2022/07/22 12:59:21;;;;;;;0.00;0.00;;;;;;;;;;5026969;28;20028;-66
2022/07/22 13:01:48;;;;;;;0.40;0.40;;;;;;;;;;5018061;28;20046;-66
2022/07/22 13:04:13;;;;;;;0.05;0.05;;;;;;;;;;5042771;28;20047;-66
2022/07/22 13:06:41;;;;;;;0.95;0.95;;;;;;;;;;5042988;28;20037;-66
2022/07/22 13:09:07;;;;;;;0.00;0.00;;;;;;;;;;5043136;28;20051;-65
2022/07/22 13:11:32;;;;;;;0.00;0.00;;;;;;;;;;5039646;28;20553;-66
2022/07/22 13:13:57;;;;;;;0.00;0.00;;;;;;;;;;5040619;28;20095;-69
2022/07/22 13:16:23;;;;;;;1.40;1.30;;;;;;;;;;5039495;28;20037;-67
2022/07/22 13:18:54;;;;;;;0.77;0.77;;;;;;;;;;5041851;28;20268;-70
2022/07/22 13:21:19;;;;;;;0.00;0.00;;;;;;;;;;5041498;28;20056;-71
2022/07/22 13:23:45;;;;;;;0.00;0.00;;;;;;;;;;5043264;28;20033;-71
2022/07/22 13:26:13;;;;;;;0.00;0.00;;;;;;;;;;5040787;28;20079;-72
2022/07/22 13:28:38;;;;;;;0.00;0.00;;;;;;;;;;5041054;28;20031;-69
2022/07/22 13:31:03;;;;;;;0.60;0.60;;;;;;;;;;5040740;28;20025;-69
2022/07/22 13:33:28;;;;;;;0.00;0.00;;;;;;;;;;5041100;28;20268;-70
2022/07/22 13:35:54;;;;;;;0.00;0.00;;;;;;;;;;5038511;28;20063;-70
2022/07/22 13:38:19;;;;;;;0.22;0.22;;;;;;;;;;5041385;28;20057;-70
2022/07/22 13:40:50;;;;;;;1.90;1.80;;;;;;;;;;5041506;28;20021;-71
2022/07/22 13:43:16;;;;;;;0.00;0.00;;;;;;;;;;5041621;28;20126;-71
2022/07/22 13:45:41;;;;;;;0.00;0.00;;;;;;;;;;5040148;28;20493;-71
2022/07/22 13:48:06;;;;;;;0.40;0.40;;;;;;;;;;5040210;28;20020;-71
2022/07/22 13:50:32;;;;;;;0.00;0.00;;;;;;;;;;5041632;28;20272;-71
2022/07/22 13:52:57;;;;;;;0.00;0.00;;;;;;;;;;5040787;28;20307;-66
2022/07/22 13:55:22;;;;;;;0.30;0.20;;;;;;;;;;5039066;28;20439;-71
2022/07/22 13:57:47;;;;;;;1.25;1.25;;;;;;;;;;5041303;28;20282;-73
2022/07/22 14:00:13;;;;;;;0.00;0.00;;;;;;;;;;5041730;28;20021;-70
2022/07/22 14:02:38;;;;;;;0.00;0.00;;;;;;;;;;5042731;28;20059;-72
2022/07/22 14:05:04;;;;;;;0.00;0.00;;;;;;;;;;5041215;28;20359;-68
2022/07/22 14:07:29;;;;;;;0.00;0.00;;;;;;;;;;5040393;28;20492;-72
2022/07/22 14:09:55;;;;;;;0.20;0.20;;;;;;;;;;5040314;28;20441;-72
2022/07/22 14:12:20;;;;;;;0.00;0.00;;;;;;;;;;5039369;28;20025;-73
2022/07/22 14:14:48;;;;;;;0.00;0.00;;;;;;;;;;5039384;28;20108;-74
2022/07/22 14:17:13;;;;;;;0.00;0.00;;;;;;;;;;5037860;28;20021;-74
2022/07/22 14:19:38;;;;;;;0.00;0.00;;;;;;;;;;5039103;28;20028;-73
2022/07/22 14:22:04;;;;;;;0.00;0.00;;;;;;;;;;5037955;28;20255;-70
2022/07/22 14:24:29;;;;;;;0.57;0.52;;;;;;;;;;5039057;28;20675;-75
2022/07/22 14:26:54;;;;;;;0.10;0.10;;;;;;;;;;5039890;28;20410;-72
2022/07/22 14:29:21;;;;;;;0.10;0.10;;;;;;;;;;5038545;28;20732;-72
2022/07/22 14:31:46;;;;;;;0.00;0.00;;;;;;;;;;5036870;28;20447;-73
2022/07/22 14:34:12;;;;;;;0.45;0.35;;;;;;;;;;5038122;28;20029;-73
2022/07/22 14:36:37;;;;;;;0.00;0.00;;;;;;;;;;5035378;28;20025;-73
2022/07/22 14:39:02;;;;;;;0.00;0.00;;;;;;;;;;5038794;28;20628;-73
2022/07/22 14:41:27;;;;;;;0.00;0.00;;;;;;;;;;5039006;28;20651;-73